createdAt,value
2017-05-04T19:50:29.916Z,93.70
2017-05-04T19:53:00.399Z,93.60
2017-05-04T19:55:30.940Z,93.70
2017-05-04T19:58:01.460Z,93.80
2017-05-04T20:00:32.012Z,93.70
2017-05-04T20:03:02.539Z,93.70
2017-05-04T20:05:33.027Z,93.90
2017-05-04T20:08:03.548Z,93.90
2017-05-04T20:10:34.028Z,93.70
2017-05-04T20:13:04.550Z,93.80
2017-05-04T20:15:34.866Z,93.90
2017-05-04T20:18:05.375Z,93.90
2017-05-04T20:20:35.868Z,94.00
2017-05-04T20:23:06.393Z,94.00
2017-05-04T20:25:36.875Z,94.10
2017-05-04T20:28:07.419Z,94.00
2017-05-04T20:30:37.908Z,94.10
2017-05-04T20:33:08.404Z,94.00
2017-05-04T20:35:38.890Z,94.00
2017-05-04T20:38:09.452Z,94.20
2017-05-04T20:40:39.919Z,94.20
2017-05-04T20:43:10.423Z,94.20
2017-05-04T20:45:40.939Z,94.10
2017-05-04T20:48:11.453Z,94.10
2017-05-04T20:50:41.951Z,94.20
2017-05-04T20:53:12.451Z,94.40
2017-05-04T20:55:42.939Z,94.10
2017-05-04T20:58:13.442Z,94.20
2017-05-04T21:00:43.921Z,94.20
2017-05-04T21:03:14.422Z,94.20
2017-05-04T21:05:44.893Z,94.10
2017-05-04T21:08:15.423Z,94.20
2017-05-04T21:10:45.910Z,94.20
2017-05-04T21:13:16.446Z,94.10
2017-05-04T21:15:46.950Z,94.00
2017-05-04T21:18:18.423Z,94.00
2017-05-04T21:20:48.916Z,94.00
2017-05-04T21:23:19.471Z,94.20
2017-05-04T21:25:49.944Z,94.30
2017-05-04T21:28:20.475Z,94.20
2017-05-04T21:30:50.983Z,94.00
2017-05-04T21:33:21.507Z,94.00
2017-05-04T21:35:51.978Z,94.00
2017-05-04T21:38:22.469Z,93.90
2017-05-04T21:40:52.977Z,94.10
2017-05-04T21:43:23.478Z,94.20
2017-05-04T21:45:53.949Z,94.20
2017-05-04T21:48:24.450Z,94.20
2017-05-04T21:50:54.936Z,94.20
2017-05-04T21:53:25.441Z,94.10
2017-05-04T21:55:55.906Z,94.20
2017-05-04T21:58:26.420Z,94.10
2017-05-04T22:00:56.899Z,94.00
2017-05-04T22:03:27.391Z,94.10
2017-05-04T22:05:57.845Z,94.00
2017-05-04T22:08:28.344Z,94.50
2017-05-04T22:10:58.826Z,94.10
2017-05-04T22:13:29.332Z,94.10
2017-05-04T22:15:59.905Z,94.10
2017-05-04T22:18:30.384Z,94.10
2017-05-04T22:21:00.882Z,94.20
2017-05-04T22:23:31.404Z,94.00
2017-05-04T22:26:01.561Z,94.00
2017-05-04T22:28:32.070Z,93.90
2017-05-04T22:31:02.563Z,94.10
2017-05-04T22:33:33.089Z,94.10
2017-05-04T22:36:03.612Z,94.20
2017-05-04T22:38:34.109Z,94.20
2017-05-04T22:41:04.580Z,94.20
2017-05-04T22:43:35.085Z,94.10
2017-05-04T22:46:05.568Z,94.10
2017-05-04T22:48:36.128Z,94.10
2017-05-04T22:51:06.619Z,94.00
2017-05-04T22:53:37.128Z,94.20
2017-05-04T22:56:07.603Z,94.40
2017-05-04T22:58:38.136Z,94.40
2017-05-04T23:01:08.612Z,94.30
2017-05-04T23:03:39.099Z,94.30
2017-05-04T23:06:08.808Z,94.30
2017-05-04T23:08:39.311Z,94.50
2017-05-04T23:11:09.801Z,94.40
2017-05-04T23:13:40.281Z,94.20
2017-05-04T23:16:10.771Z,94.30
2017-05-04T23:18:41.248Z,94.30
2017-05-04T23:21:11.752Z,94.10
2017-05-04T23:23:42.261Z,94.10
2017-05-04T23:26:12.794Z,94.10
2017-05-04T23:28:43.283Z,93.90
2017-05-04T23:31:13.784Z,94.00
2017-05-04T23:33:44.275Z,93.90
2017-05-04T23:36:14.765Z,94.70
2017-05-04T23:38:45.261Z,94.20
2017-05-04T23:41:15.788Z,94.00
2017-05-04T23:43:46.286Z,94.90
2017-05-04T23:46:16.797Z,94.50
2017-05-04T23:48:47.304Z,94.50
2017-05-04T23:51:17.798Z,94.50
2017-05-04T23:53:48.282Z,94.30
2017-05-04T23:56:18.784Z,94.30
2017-05-04T23:58:49.303Z,94.40
